sensor_id;sensor_type;location;lat;lon;timestamp;pressure;altitude;pressure_sealevel;temperature;humidity
77517;BME280;68414;53.946;27.634;2023-04-19T00:01:01;99230.679688;;;9.820000;59.263672
77517;BME280;68414;53.946;27.634;2023-04-19T00:02:01;99225.171875;;;9.820000;59.155273
77517;BME280;68414;53.946;27.634;2023-04-19T00:03:01;99219.781250;;;9.850000;59.193359
77517;BME280;68414;53.946;27.634;2023-04-19T00:04:01;99230.679688;;;9.820000;59.209961
77517;BME280;68414;53.946;27.634;2023-04-19T00:05:01;99221.296875;;;9.830000;59.210938
77517;BME280;68414;53.946;27.634;2023-04-19T00:06:01;99215.640625;;;9.790000;59.304688
77517;BME280;68414;53.946;27.634;2023-04-19T00:07:01;99226.453125;;;9.840000;59.376953
77517;BME280;68414;53.946;27.634;2023-04-19T00:08:01;99230.937500;;;9.890000;59.166016
77517;BME280;68414;53.946;27.634;2023-04-19T00:09:01;99233.078125;;;9.830000;59.125977
77517;BME280;68414;53.946;27.634;2023-04-19T00:10:01;99224.828125;;;9.830000;59.234375
77517;BME280;68414;53.946;27.634;2023-04-19T00:11:01;99219.671875;;;9.820000;59.177734
77517;BME280;68414;53.946;27.634;2023-04-19T00:12:01;99218.546875;;;9.830000;59.189453
77517;BME280;68414;53.946;27.634;2023-04-19T00:13:01;99222.890625;;;9.840000;59.190430
77517;BME280;68414;53.946;27.634;2023-04-19T00:14:01;99221.156250;;;9.790000;59.196289
77517;BME280;68414;53.946;27.634;2023-04-19T00:15:01;99223.328125;;;9.740000;59.458984
77517;BME280;68414;53.946;27.634;2023-04-19T00:16:01;99217.359375;;;9.720000;59.456055
77517;BME280;68414;53.946;27.634;2023-04-19T00:17:01;99224.140625;;;9.740000;59.427734
77517;BME280;68414;53.946;27.634;2023-04-19T00:18:01;99225.734375;;;9.750000;59.407227
77517;BME280;68414;53.946;27.634;2023-04-19T00:19:01;99223.789062;;;9.760000;59.483398
77517;BME280;68414;53.946;27.634;2023-04-19T00:20:01;99212.640625;;;9.720000;59.500977
77517;BME280;68414;53.946;27.634;2023-04-19T00:21:01;99216.554688;;;9.710000;59.706055
77517;BME280;68414;53.946;27.634;2023-04-19T00:22:01;99222.054688;;;9.710000;59.553711
77517;BME280;68414;53.946;27.634;2023-04-19T00:23:01;99223.789062;;;9.760000;59.537109
77517;BME280;68414;53.946;27.634;2023-04-19T00:24:01;99221.296875;;;9.830000;59.406250
77517;BME280;68414;53.946;27.634;2023-04-19T00:25:01;99230.679688;;;9.820000;59.405273
77517;BME280;68414;53.946;27.634;2023-04-19T00:26:01;99225.734375;;;9.750000;59.547852
77517;BME280;68414;53.946;27.634;2023-04-19T00:27:01;99221.039062;;;9.760000;59.569336
77517;BME280;68414;53.946;27.634;2023-04-19T00:28:01;99216.898438;;;9.700000;59.594727
77517;BME280;68414;53.946;27.634;2023-04-19T00:29:01;99218.843750;;;9.690000;59.626953
77517;BME280;68414;53.946;27.634;2023-04-19T00:30:01;99219.296875;;;9.710000;59.846680
77517;BME280;68414;53.946;27.634;2023-04-19T00:31:01;99221.593750;;;9.690000;59.660156
77517;BME280;68414;53.946;27.634;2023-04-19T00:32:01;99216.898438;;;9.700000;59.626953
77517;BME280;68414;53.946;27.634;2023-04-19T00:33:01;99215.484375;;;9.640000;59.912109
77517;BME280;68414;53.946;27.634;2023-04-19T00:34:01;99218.492188;;;9.710000;59.986328
77517;BME280;68414;53.946;27.634;2023-04-19T00:35:01;99214.000000;;;9.660000;60.066406
77517;BME280;68414;53.946;27.634;2023-04-19T00:36:01;99216.296875;;;9.640000;59.782227
77517;BME280;68414;53.946;27.634;2023-04-19T00:37:01;99215.625000;;;9.670000;59.753906
77517;BME280;68414;53.946;27.634;2023-04-19T00:38:01;99214.703125;;;9.630000;59.921875
77517;BME280;68414;53.946;27.634;2023-04-19T00:39:01;99213.546875;;;9.640000;59.966797
77517;BME280;68414;53.946;27.634;2023-04-19T00:40:01;99214.703125;;;9.630000;59.911133
77517;BME280;68414;53.946;27.634;2023-04-19T00:41:01;99213.976562;;;9.540000;60.116211
77517;BME280;68414;53.946;27.634;2023-04-19T00:42:01;99207.578125;;;9.620000;59.910156
77517;BME280;68414;53.946;27.634;2023-04-19T00:43:01;99211.484375;;;9.610000;59.995117
77517;BME280;68414;53.946;27.634;2023-04-19T00:44:01;99206.656250;;;9.580000;60.121094
77517;BME280;68414;53.946;27.634;2023-04-19T00:45:01;99214.796875;;;9.550000;59.997070
77517;BME280;68414;53.946;27.634;2023-04-19T00:46:01;99204.250000;;;9.570000;60.032227
77517;BME280;68414;53.946;27.634;2023-04-19T00:47:01;99212.359375;;;9.530000;60.113281
77517;BME280;68414;53.946;27.634;2023-04-19T00:48:01;99210.617188;;;9.490000;60.335938
77517;BME280;68414;53.946;27.634;2023-04-19T00:49:01;99209.484375;;;9.500000;60.370117
77517;BME280;68414;53.946;27.634;2023-04-19T00:50:02;99208.476562;;;9.540000;60.300781
77517;BME280;68414;53.946;27.634;2023-04-19T00:51:01;99208.328125;;;9.510000;60.273438
77517;BME280;68414;53.946;27.634;2023-04-19T00:52:01;99212.234375;;;9.500000;60.250977
77517;BME280;68414;53.946;27.634;2023-04-19T00:53:01;99206.078125;;;9.530000;60.308594
77517;BME280;68414;53.946;27.634;2023-04-19T00:54:01;99203.640625;;;9.510000;60.328125
77517;BME280;68414;53.946;27.634;2023-04-19T00:55:01;99203.906250;;;9.580000;60.197266
77517;BME280;68414;53.946;27.634;2023-04-19T00:56:01;99204.453125;;;9.520000;60.209961
77517;BME280;68414;53.946;27.634;2023-04-19T00:57:01;99204.562500;;;9.550000;60.169922
77517;BME280;68414;53.946;27.634;2023-04-19T00:58:01;99204.109375;;;9.530000;60.406250
77517;BME280;68414;53.946;27.634;2023-04-19T00:59:01;99198.484375;;;9.500000;60.391602
77517;BME280;68414;53.946;27.634;2023-04-19T01:00:01;99199.968750;;;9.470000;60.344727
77517;BME280;68414;53.946;27.634;2023-04-19T01:01:01;99211.312500;;;9.460000;60.666992
77517;BME280;68414;53.946;27.634;2023-04-19T01:02:01;99202.593750;;;9.440000;60.393555
77517;BME280;68414;53.946;27.634;2023-04-19T01:03:01;99200.976562;;;9.430000;60.522461
77517;BME280;68414;53.946;27.634;2023-04-19T01:04:01;99201.320312;;;9.410000;60.573242
77517;BME280;68414;53.946;27.634;2023-04-19T01:05:01;99203.375000;;;9.440000;60.568359
77517;BME280;68414;53.946;27.634;2023-04-19T01:06:01;99204.656250;;;9.470000;60.517578
77517;BME280;68414;53.946;27.634;2023-04-19T01:07:01;99204.078125;;;9.410000;60.551758
77517;BME280;68414;53.946;27.634;2023-04-19T01:08:01;99206.671875;;;9.380000;60.645508
77517;BME280;68414;53.946;27.634;2023-04-19T01:09:01;99205.203125;;;9.400000;60.736328
77517;BME280;68414;53.946;27.634;2023-04-19T01:10:03;99198.921875;;;9.400000;60.789062
77517;BME280;68414;53.946;27.634;2023-04-19T01:11:01;99202.796875;;;9.390000;60.666992
77517;BME280;68414;53.946;27.634;2023-04-19T01:12:01;99199.843750;;;9.440000;60.674805
77517;BME280;68414;53.946;27.634;2023-04-19T01:13:01;99199.234375;;;9.380000;60.905273
77517;BME280;68414;53.946;27.634;2023-04-19T01:14:01;99196.484375;;;9.380000;60.830078
77517;BME280;68414;53.946;27.634;2023-04-19T01:15:01;99199.125000;;;9.350000;60.759766
77517;BME280;68414;53.946;27.634;2023-04-19T01:16:01;99185.023438;;;9.360000;60.794922
77517;BME280;68414;53.946;27.634;2023-04-19T01:17:01;99193.273438;;;9.360000;60.859375
77517;BME280;68414;53.946;27.634;2023-04-19T01:18:01;99190.671875;;;9.400000;60.767578
77517;BME280;68414;53.946;27.634;2023-04-19T01:19:01;99191.453125;;;9.400000;60.714844
77517;BME280;68414;53.946;27.634;2023-04-19T01:20:01;99190.171875;;;9.380000;60.732422
77517;BME280;68414;53.946;27.634;2023-04-19T01:21:01;99198.312500;;;9.340000;60.705078
77517;BME280;68414;53.946;27.634;2023-04-19T01:22:01;99199.585938;;;9.370000;60.784180
77517;BME280;68414;53.946;27.634;2023-04-19T01:23:01;99197.500000;;;9.340000;60.876953
77517;BME280;68414;53.946;27.634;2023-04-19T01:24:01;99190.062500;;;9.340000;60.845703
77517;BME280;68414;53.946;27.634;2023-04-19T01:25:01;99187.187500;;;9.310000;60.906250
77517;BME280;68414;53.946;27.634;2023-04-19T01:26:01;99193.156250;;;9.330000;61.233398
77517;BME280;68414;53.946;27.634;2023-04-19T01:27:00;99200.593750;;;9.320000;61.103516
77517;BME280;68414;53.946;27.634;2023-04-19T01:28:00;99195.476562;;;9.430000;60.858398
77517;BME280;68414;53.946;27.634;2023-04-19T01:29:00;99196.953125;;;9.400000;61.104492
77517;BME280;68414;53.946;27.634;2023-04-19T01:30:01;99193.421875;;;9.400000;61.211914
77517;BME280;68414;53.946;27.634;2023-04-19T01:31:01;99193.882812;;;9.420000;60.802734
77517;BME280;68414;53.946;27.634;2023-04-19T01:32:01;99192.921875;;;9.380000;60.775391
77517;BME280;68414;53.946;27.634;2023-04-19T01:33:01;99194.546875;;;9.390000;60.775391
77517;BME280;68414;53.946;27.634;2023-04-19T01:34:01;99197.960938;;;9.360000;60.859375
77517;BME280;68414;53.946;27.634;2023-04-19T01:35:01;99188.234375;;;9.380000;60.905273
77517;BME280;68414;53.946;27.634;2023-04-19T01:36:01;99192.921875;;;9.380000;60.840820
77517;BME280;68414;53.946;27.634;2023-04-19T01:37:01;99195.906250;;;9.330000;60.854492
77517;BME280;68414;53.946;27.634;2023-04-19T01:38:01;99192.000000;;;9.340000;60.888672
77517;BME280;68414;53.946;27.634;2023-04-19T01:39:00;99199.585938;;;9.370000;60.880859
77517;BME280;68414;53.946;27.634;2023-04-19T01:40:01;99197.296875;;;9.390000;60.840820
77517;BME280;68414;53.946;27.634;2023-04-19T01:41:01;99192.375000;;;9.440000;60.838867
77517;BME280;68414;53.946;27.634;2023-04-19T01:42:00;99189.859375;;;9.390000;60.982422
77517;BME280;68414;53.946;27.634;2023-04-19T01:43:00;99190.171875;;;9.380000;60.699219
77517;BME280;68414;53.946;27.634;2023-04-19T01:44:00;99204.156250;;;9.330000;60.833008
77517;BME280;68414;53.946;27.634;2023-04-19T01:45:01;99193.968750;;;9.330000;60.888672
77517;BME280;68414;53.946;27.634;2023-04-19T01:46:01;99196.835938;;;9.370000;61.033203
77517;BME280;68414;53.946;27.634;2023-04-19T01:47:01;99192.343750;;;9.320000;60.918945
77517;BME280;68414;53.946;27.634;2023-04-19T01:48:01;99195.437500;;;9.310000;60.970703
77517;BME280;68414;53.946;27.634;2023-04-19T01:49:01;99193.820312;;;9.300000;61.001953
77517;BME280;68414;53.946;27.634;2023-04-19T01:50:01;99198.187500;;;9.310000;61.089844
77517;BME280;68414;53.946;27.634;2023-04-19T01:51:01;99198.859375;;;9.280000;61.281250
77517;BME280;68414;53.946;27.634;2023-04-19T01:52:00;99196.109375;;;9.280000;61.226562
77517;BME280;68414;53.946;27.634;2023-04-19T01:53:00;99196.296875;;;9.230000;61.250977
77517;BME280;68414;53.946;27.634;2023-04-19T01:54:00;99190.953125;;;9.260000;61.236328
77517;BME280;68414;53.946;27.634;2023-04-19T01:55:00;99197.265625;;;9.270000;61.398438
77517;BME280;68414;53.946;27.634;2023-04-19T01:56:00;99190.140625;;;9.260000;61.321289
77517;BME280;68414;53.946;27.634;2023-04-19T01:57:00;99195.984375;;;9.240000;61.427734
77517;BME280;68414;53.946;27.634;2023-04-19T01:58:00;99199.046875;;;9.230000;61.380859
77517;BME280;68414;53.946;27.634;2023-04-19T01:59:00;99199.046875;;;9.230000;61.348633
77517;BME280;68414;53.946;27.634;2023-04-19T02:00:01;99190.875000;;;9.140000;61.618164
77517;BME280;68414;53.946;27.634;2023-04-19T02:01:01;99193.859375;;;9.090000;61.838867
77517;BME280;68414;53.946;27.634;2023-04-19T02:02:01;99193.859375;;;9.090000;61.860352
77517;BME280;68414;53.946;27.634;2023-04-19T02:03:01;99192.382812;;;9.110000;61.897461
77517;BME280;68414;53.946;27.634;2023-04-19T02:04:01;99193.781250;;;9.180000;61.818359
77517;BME280;68414;53.946;27.634;2023-04-19T02:05:00;99196.062500;;;9.150000;61.718750
77517;BME280;68414;53.946;27.634;2023-04-19T02:06:00;99198.812500;;;9.150000;61.793945
77517;BME280;68414;53.946;27.634;2023-04-19T02:07:00;99199.281250;;;9.180000;61.764648
77517;BME280;68414;53.946;27.634;2023-04-19T02:08:00;99199.281250;;;9.180000;61.569336
77517;BME280;68414;53.946;27.634;2023-04-19T02:09:00;99192.156250;;;9.160000;61.860352
77517;BME280;68414;53.946;27.634;2023-04-19T02:10:00;99200.625000;;;9.110000;61.778320
77517;BME280;68414;53.946;27.634;2023-04-19T02:11:04;99193.968750;;;9.120000;61.823242
77517;BME280;68414;53.946;27.634;2023-04-19T02:12:00;99199.812500;;;9.110000;61.928711
77517;BME280;68414;53.946;27.634;2023-04-19T02:13:00;99200.476562;;;9.080000;61.891602
77517;BME280;68414;53.946;27.634;2023-04-19T02:14:01;99188.359375;;;9.090000;61.947266
77517;BME280;68414;53.946;27.634;2023-04-19T02:15:01;99207.132812;;;9.070000;62.171875
77517;BME280;68414;53.946;27.634;2023-04-19T02:16:01;99195.250000;;;9.150000;61.922852
77517;BME280;68414;53.946;27.634;2023-04-19T02:17:00;99190.093750;;;9.130000;62.126953
77517;BME280;68414;53.946;27.634;2023-04-19T02:18:00;99187.343750;;;9.130000;62.040039
77517;BME280;68414;53.946;27.634;2023-04-19T02:19:00;99188.937500;;;9.140000;61.825195
77517;BME280;68414;53.946;27.634;2023-04-19T02:20:00;99188.937500;;;9.140000;61.825195
77517;BME280;68414;53.946;27.634;2023-04-19T02:21:00;99187.468750;;;9.170000;61.656250
77517;BME280;68414;53.946;27.634;2023-04-19T02:22:00;99186.187500;;;9.140000;61.695312
77517;BME280;68414;53.946;27.634;2023-04-19T02:23:00;99188.054688;;;9.230000;61.749023
77517;BME280;68414;53.946;27.634;2023-04-19T02:24:00;99177.750000;;;9.200000;61.702148
77517;BME280;68414;53.946;27.634;2023-04-19T02:25:00;99187.125000;;;9.180000;62.144531
77517;BME280;68414;53.946;27.634;2023-04-19T02:26:01;99179.562500;;;9.150000;61.750977
77517;BME280;68414;53.946;27.634;2023-04-19T02:27:00;99181.156250;;;9.160000;61.828125
77517;BME280;68414;53.946;27.634;2023-04-19T02:28:00;99182.437500;;;9.190000;61.789062
77517;BME280;68414;53.946;27.634;2023-04-19T02:29:00;99190.687500;;;9.190000;61.832031
77517;BME280;68414;53.946;27.634;2023-04-19T02:30:00;99177.828125;;;9.110000;62.003906
77517;BME280;68414;53.946;27.634;2023-04-19T02:31:03;99179.421875;;;9.120000;61.983398
77517;BME280;68414;53.946;27.634;2023-04-19T02:32:00;99182.632812;;;9.140000;61.932617
77517;BME280;68414;53.946;27.634;2023-04-19T02:33:00;99181.773438;;;9.220000;61.727539
77517;BME280;68414;53.946;27.634;2023-04-19T02:34:00;99177.281250;;;9.180000;61.818359
77517;BME280;68414;53.946;27.634;2023-04-19T02:35:00;99170.976562;;;9.170000;61.807617
77517;BME280;68414;53.946;27.634;2023-04-19T02:36:00;99173.718750;;;9.170000;61.634766
77517;BME280;68414;53.946;27.634;2023-04-19T02:37:00;99171.320312;;;9.150000;62.000000
77517;BME280;68414;53.946;27.634;2023-04-19T02:38:01;99173.257812;;;9.150000;61.890625
77517;BME280;68414;53.946;27.634;2023-04-19T02:39:00;99165.125000;;;9.180000;61.776367
77517;BME280;68414;53.946;27.634;2023-04-19T02:40:00;99165.828125;;;9.150000;61.697266
77517;BME280;68414;53.946;27.634;2023-04-19T02:41:00;99168.578125;;;9.150000;61.729492
77517;BME280;68414;53.946;27.634;2023-04-19T02:42:00;99158.039062;;;9.180000;61.786133
77517;BME280;68414;53.946;27.634;2023-04-19T02:43:00;99163.187500;;;9.190000;61.712891
77517;BME280;68414;53.946;27.634;2023-04-19T02:44:00;99167.875000;;;9.180000;61.722656
77517;BME280;68414;53.946;27.634;2023-04-19T02:45:00;99168.109375;;;9.130000;61.834961
77517;BME280;68414;53.946;27.634;2023-04-19T02:46:00;99163.851562;;;9.160000;61.783203
77517;BME280;68414;53.946;27.634;2023-04-19T02:47:00;99172.453125;;;9.140000;61.869141
77517;BME280;68414;53.946;27.634;2023-04-19T02:48:01;99166.601562;;;9.160000;61.891602
77517;BME280;68414;53.946;27.634;2023-04-19T02:49:00;99169.109375;;;9.090000;62.023438
77517;BME280;68414;53.946;27.634;2023-04-19T02:50:00;99168.765625;;;9.100000;61.916016
77517;BME280;68414;53.946;27.634;2023-04-19T02:51:00;99178.875000;;;9.180000;61.690430
77517;BME280;68414;53.946;27.634;2023-04-19T02:52:00;99178.171875;;;9.090000;62.035156
77517;BME280;68414;53.946;27.634;2023-04-19T02:53:00;99174.460938;;;9.050000;62.179688
77517;BME280;68414;53.946;27.634;2023-04-19T02:54:00;99183.171875;;;9.070000;62.076172
77517;BME280;68414;53.946;27.634;2023-04-19T02:55:00;99176.671875;;;9.120000;61.994141
77517;BME280;68414;53.946;27.634;2023-04-19T02:56:00;99172.671875;;;9.090000;62.045898
77517;BME280;68414;53.946;27.634;2023-04-19T02:57:00;99179.296875;;;9.080000;61.957031
77517;BME280;68414;53.946;27.634;2023-04-19T02:58:00;99172.171875;;;9.070000;62.313477
77517;BME280;68414;53.946;27.634;2023-04-19T02:59:01;99175.078125;;;9.110000;62.155273
77517;BME280;68414;53.946;27.634;2023-04-19T03:00:00;99182.976562;;;9.120000;61.985352
77517;BME280;68414;53.946;27.634;2023-04-19T03:01:00;99176.671875;;;9.120000;61.918945
77517;BME280;68414;53.946;27.634;2023-04-19T03:02:00;99180.234375;;;9.120000;61.974609
77517;BME280;68414;53.946;27.634;2023-04-19T03:03:00;99173.609375;;;9.130000;62.148438
77517;BME280;68414;53.946;27.634;2023-04-19T03:04:01;99174.070312;;;9.150000;61.934570
77517;BME280;68414;53.946;27.634;2023-04-19T03:05:00;99174.851562;;;9.160000;62.086914
77517;BME280;68414;53.946;27.634;2023-04-19T03:06:01;99182.171875;;;9.120000;61.972656
77517;BME280;68414;53.946;27.634;2023-04-19T03:07:00;99179.109375;;;9.130000;61.986328
77517;BME280;68414;53.946;27.634;2023-04-19T03:08:00;99184.140625;;;9.110000;61.918945
77517;BME280;68414;53.946;27.634;2023-04-19T03:09:00;99182.515625;;;9.100000;61.992188
77517;BME280;68414;53.946;27.634;2023-04-19T03:10:00;99180.421875;;;9.070000;62.086914
77517;BME280;68414;53.946;27.634;2023-04-19T03:11:00;99178.171875;;;9.090000;62.088867
77517;BME280;68414;53.946;27.634;2023-04-19T03:12:00;99177.671875;;;9.070000;62.270508
77517;BME280;68414;53.946;27.634;2023-04-19T03:13:00;99177.906250;;;9.020000;62.360352
77517;BME280;68414;53.946;27.634;2023-04-19T03:14:00;99183.859375;;;9.040000;62.362305
77517;BME280;68414;53.946;27.634;2023-04-19T03:15:00;99177.093750;;;9.020000;62.336914
77517;BME280;68414;53.946;27.634;2023-04-19T03:16:00;99176.085938;;;9.060000;62.560547
77517;BME280;68414;53.946;27.634;2023-04-19T03:17:01;99179.562500;;;9.150000;62.097656
77517;BME280;68414;53.946;27.634;2023-04-19T03:18:00;99168.765625;;;9.100000;62.143555
77517;BME280;68414;53.946;27.634;2023-04-19T03:19:00;99174.687500;;;9.000000;62.400391
77517;BME280;68414;53.946;27.634;2023-04-19T03:20:00;99174.000000;;;9.030000;62.458984
77517;BME280;68414;53.946;27.634;2023-04-19T03:21:01;99177.906250;;;9.020000;62.414062
77517;BME280;68414;53.946;27.634;2023-04-19T03:22:00;99169.968750;;;9.010000;62.444336
77517;BME280;68414;53.946;27.634;2023-04-19T03:23:00;99173.406250;;;8.980000;62.580078
77517;BME280;68414;53.946;27.634;2023-04-19T03:24:00;99168.578125;;;8.950000;62.738281
77517;BME280;68414;53.946;27.634;2023-04-19T03:25:00;99171.007812;;;8.960000;62.718750
77517;BME280;68414;53.946;27.634;2023-04-19T03:26:00;99175.226562;;;8.940000;62.887695
77517;BME280;68414;53.946;27.634;2023-04-19T03:27:01;99172.328125;;;8.900000;62.894531
77517;BME280;68414;53.946;27.634;2023-04-19T03:28:01;99173.257812;;;8.940000;62.910156
77517;BME280;68414;53.946;27.634;2023-04-19T03:29:00;99167.765625;;;8.940000;62.899414
77517;BME280;68414;53.946;27.634;2023-04-19T03:30:00;99173.953125;;;8.910000;62.949219
77517;BME280;68414;53.946;27.634;2023-04-19T03:31:00;99177.820312;;;8.900000;62.948242
77517;BME280;68414;53.946;27.634;2023-04-19T03:32:00;99169.734375;;;8.940000;62.995117
77517;BME280;68414;53.946;27.634;2023-04-19T03:33:00;99170.507812;;;8.940000;62.845703
77517;BME280;68414;53.946;27.634;2023-04-19T03:34:00;99172.328125;;;8.900000;63.121094
77517;BME280;68414;53.946;27.634;2023-04-19T03:35:01;99171.546875;;;8.900000;63.087891
77517;BME280;68414;53.946;27.634;2023-04-19T03:36:00;99167.046875;;;8.850000;63.166992
77517;BME280;68414;53.946;27.634;2023-04-19T03:37:00;99163.835938;;;8.830000;63.229492
77517;BME280;68414;53.946;27.634;2023-04-19T03:38:00;99169.796875;;;8.850000;63.145508
77517;BME280;68414;53.946;27.634;2023-04-19T03:39:01;99171.859375;;;8.880000;63.151367
77517;BME280;68414;53.946;27.634;2023-04-19T03:40:00;99170.578125;;;8.860000;63.254883
77517;BME280;68414;53.946;27.634;2023-04-19T03:41:00;99167.765625;;;8.940000;63.148438
77517;BME280;68414;53.946;27.634;2023-04-19T03:42:00;99169.851562;;;8.970000;63.099609
77517;BME280;68414;53.946;27.634;2023-04-19T03:43:00;99170.195312;;;8.960000;62.923828
77517;BME280;68414;53.946;27.634;2023-04-19T03:44:00;99172.476562;;;8.940000;62.973633
77517;BME280;68414;53.946;27.634;2023-04-19T03:45:01;99171.203125;;;8.910000;63.046875
77517;BME280;68414;53.946;27.634;2023-04-19T03:46:00;99166.296875;;;8.970000;63.000977
77517;BME280;68414;53.946;27.634;2023-04-19T03:47:00;99170.046875;;;8.920000;62.983398
77517;BME280;68414;53.946;27.634;2023-04-19T03:48:00;99178.437500;;;8.960000;62.988281
77517;BME280;68414;53.946;27.634;2023-04-19T03:49:00;99183.593750;;;8.970000;63.078125
77517;BME280;68414;53.946;27.634;2023-04-19T03:50:00;99188.500000;;;8.920000;63.046875
77517;BME280;68414;53.946;27.634;2023-04-19T03:51:00;99195.929688;;;8.910000;63.198242
77517;BME280;68414;53.946;27.634;2023-04-19T03:52:00;99201.296875;;;8.880000;63.355469
77517;BME280;68414;53.946;27.634;2023-04-19T03:53:02;99190.625000;;;8.860000;63.418945
77517;BME280;68414;53.946;27.634;2023-04-19T03:54:00;99196.468750;;;8.850000;63.458984
77517;BME280;68414;53.946;27.634;2023-04-19T03:55:00;99188.031250;;;8.900000;63.465820
77517;BME280;68414;53.946;27.634;2023-04-19T03:56:01;99184.812500;;;8.880000;63.398438
77517;BME280;68414;53.946;27.634;2023-04-19T03:57:00;99189.968750;;;8.890000;63.377930
77517;BME280;68414;53.946;27.634;2023-04-19T03:58:00;99185.812500;;;8.830000;63.510742
77517;BME280;68414;53.946;27.634;2023-04-19T03:59:00;99202.078125;;;8.880000;63.475586
77517;BME280;68414;53.946;27.634;2023-04-19T04:00:00;99197.281250;;;8.850000;63.426758
77517;BME280;68414;53.946;27.634;2023-04-19T04:01:00;99194.000000;;;8.920000;63.468750
77517;BME280;68414;53.946;27.634;2023-04-19T04:02:00;99187.617188;;;9.000000;63.253906
77517;BME280;68414;53.946;27.634;2023-04-19T04:03:00;99189.085938;;;8.970000;63.348633
77517;BME280;68414;53.946;27.634;2023-04-19T04:04:00;99187.500000;;;8.960000;63.205078
77517;BME280;68414;53.946;27.634;2023-04-19T04:05:00;99180.500000;;;8.990000;63.187500
77517;BME280;68414;53.946;27.634;2023-04-19T04:06:00;99193.921875;;;9.000000;63.125000
77517;BME280;68414;53.946;27.634;2023-04-19T04:07:00;99197.328125;;;8.970000;63.186523
77517;BME280;68414;53.946;27.634;2023-04-19T04:08:00;99195.929688;;;8.910000;63.360352
77517;BME280;68414;53.946;27.634;2023-04-19T04:09:00;99194.773438;;;8.920000;63.469727
77517;BME280;68414;53.946;27.634;2023-04-19T04:10:00;99185.406250;;;8.930000;63.352539
77517;BME280;68414;53.946;27.634;2023-04-19T04:11:00;99187.960938;;;8.980000;63.337891
77517;BME280;68414;53.946;27.634;2023-04-19T04:12:00;99186.343750;;;8.970000;63.304688
77517;BME280;68414;53.946;27.634;2023-04-19T04:13:00;99188.078125;;;9.020000;63.461914
77517;BME280;68414;53.946;27.634;2023-04-19T04:14:00;99198.882812;;;9.070000;63.210938
77517;BME280;68414;53.946;27.634;2023-04-19T04:15:01;99200.359375;;;9.040000;63.141602
77517;BME280;68414;53.946;27.634;2023-04-19T04:16:00;99194.046875;;;9.040000;63.053711
77517;BME280;68414;53.946;27.634;2023-04-19T04:17:00;99190.828125;;;9.020000;63.169922
77517;BME280;68414;53.946;27.634;2023-04-19T04:18:00;99187.890625;;;9.070000;63.081055
77517;BME280;68414;53.946;27.634;2023-04-19T04:19:00;99192.695312;;;9.100000;63.019531
77517;BME280;68414;53.946;27.634;2023-04-19T04:20:00;99194.664062;;;9.090000;63.008789
77517;BME280;68414;53.946;27.634;2023-04-19T04:21:00;99200.625000;;;9.110000;63.011719
77517;BME280;68414;53.946;27.634;2023-04-19T04:22:00;99194.320312;;;9.110000;63.064453
77517;BME280;68414;53.946;27.634;2023-04-19T04:23:00;99191.687500;;;9.140000;62.864258
77517;BME280;68414;53.946;27.634;2023-04-19T04:24:00;99187.812500;;;9.150000;62.713867
77517;BME280;68414;53.946;27.634;2023-04-19T04:25:02;99202.765625;;;9.270000;62.579102
77517;BME280;68414;53.946;27.634;2023-04-19T04:26:00;99201.484375;;;9.240000;62.466797
77517;BME280;68414;53.946;27.634;2023-04-19T04:27:00;99191.492188;;;9.200000;62.546875
77517;BME280;68414;53.946;27.634;2023-04-19T04:28:00;99193.820312;;;9.300000;62.734375
77517;BME280;68414;53.946;27.634;2023-04-19T04:29:00;99194.164062;;;9.280000;62.418945
77517;BME280;68414;53.946;27.634;2023-04-19T04:30:00;99199.468750;;;9.330000;62.338867
77517;BME280;68414;53.946;27.634;2023-04-19T04:31:00;99206.015625;;;9.410000;62.425781
77517;BME280;68414;53.946;27.634;2023-04-19T04:32:00;99201.171875;;;9.380000;62.064453
77517;BME280;68414;53.946;27.634;2023-04-19T04:33:00;99200.976562;;;9.430000;61.941406
77517;BME280;68414;53.946;27.634;2023-04-19T04:34:01;99200.773438;;;9.480000;61.861328